sensor_id;sensor_type;location;lat;lon;timestamp;P1;durP1;ratioP1;P2;durP2;ratioP2
70122;SDS011;57489;37.404;24.920;2023-08-06T00:00:50;11.67;;;3.23;;
70122;SDS011;57489;37.404;24.920;2023-08-06T00:05:51;11.13;;;3.37;;
70122;SDS011;57489;37.404;24.920;2023-08-06T00:10:51;9.75;;;3.03;;
70122;SDS011;57489;37.404;24.920;2023-08-06T00:15:52;10.40;;;3.30;;
70122;SDS011;57489;37.404;24.920;2023-08-06T00:20:52;8.63;;;3.30;;
70122;SDS011;57489;37.404;24.920;2023-08-06T00:25:53;9.93;;;3.50;;
70122;SDS011;57489;37.404;24.920;2023-08-06T00:30:53;9.33;;;3.20;;
70122;SDS011;57489;37.404;24.920;2023-08-06T00:35:55;7.75;;;3.33;;
70122;SDS011;57489;37.404;24.920;2023-08-06T00:40:55;9.97;;;3.50;;
70122;SDS011;57489;37.404;24.920;2023-08-06T00:45:55;11.77;;;3.60;;
70122;SDS011;57489;37.404;24.920;2023-08-06T00:50:56;11.00;;;4.20;;
70122;SDS011;57489;37.404;24.920;2023-08-06T00:55:56;9.63;;;2.90;;
70122;SDS011;57489;37.404;24.920;2023-08-06T01:00:58;9.98;;;3.55;;
70122;SDS011;57489;37.404;24.920;2023-08-06T01:05:59;9.17;;;2.40;;
70122;SDS011;57489;37.404;24.920;2023-08-06T01:11:25;8.40;;;3.47;;
70122;SDS011;57489;37.404;24.920;2023-08-06T01:16:23;7.63;;;3.30;;
70122;SDS011;57489;37.404;24.920;2023-08-06T01:21:25;11.40;;;3.43;;
70122;SDS011;57489;37.404;24.920;2023-08-06T01:26:59;11.10;;;3.87;;
70122;SDS011;57489;37.404;24.920;2023-08-06T01:31:58;11.43;;;3.20;;
70122;SDS011;57489;37.404;24.920;2023-08-06T01:36:59;11.80;;;3.63;;
70122;SDS011;57489;37.404;24.920;2023-08-06T01:42:00;10.17;;;4.03;;
70122;SDS011;57489;37.404;24.920;2023-08-06T01:47:01;9.43;;;3.33;;
70122;SDS011;57489;37.404;24.920;2023-08-06T01:52:01;9.07;;;3.30;;
70122;SDS011;57489;37.404;24.920;2023-08-06T01:57:02;8.80;;;3.30;;
70122;SDS011;57489;37.404;24.920;2023-08-06T02:02:03;8.17;;;3.73;;
70122;SDS011;57489;37.404;24.920;2023-08-06T02:07:03;8.47;;;3.47;;
70122;SDS011;57489;37.404;24.920;2023-08-06T02:12:04;12.88;;;3.47;;
70122;SDS011;57489;37.404;24.920;2023-08-06T02:17:05;11.90;;;4.00;;
70122;SDS011;57489;37.404;24.920;2023-08-06T02:22:06;12.20;;;3.60;;
70122;SDS011;57489;37.404;24.920;2023-08-06T02:27:06;8.47;;;3.33;;
70122;SDS011;57489;37.404;24.920;2023-08-06T02:32:07;10.07;;;3.43;;
70122;SDS011;57489;37.404;24.920;2023-08-06T02:37:07;11.67;;;3.23;;
70122;SDS011;57489;37.404;24.920;2023-08-06T02:42:08;13.17;;;3.87;;
70122;SDS011;57489;37.404;24.920;2023-08-06T02:47:08;14.88;;;4.00;;
70122;SDS011;57489;37.404;24.920;2023-08-06T02:52:09;10.00;;;3.57;;
70122;SDS011;57489;37.404;24.920;2023-08-06T02:57:09;10.37;;;4.00;;
70122;SDS011;57489;37.404;24.920;2023-08-06T03:02:10;13.73;;;3.87;;
70122;SDS011;57489;37.404;24.920;2023-08-06T03:07:10;11.60;;;3.63;;
70122;SDS011;57489;37.404;24.920;2023-08-06T03:12:11;10.83;;;3.73;;
70122;SDS011;57489;37.404;24.920;2023-08-06T03:17:12;14.32;;;4.70;;
70122;SDS011;57489;37.404;24.920;2023-08-06T03:22:12;13.30;;;4.10;;
70122;SDS011;57489;37.404;24.920;2023-08-06T03:27:12;11.50;;;3.57;;
70122;SDS011;57489;37.404;24.920;2023-08-06T03:32:13;14.47;;;4.00;;
70122;SDS011;57489;37.404;24.920;2023-08-06T03:37:13;11.17;;;3.37;;
70122;SDS011;57489;37.404;24.920;2023-08-06T03:42:14;11.27;;;3.73;;
70122;SDS011;57489;37.404;24.920;2023-08-06T03:47:14;13.77;;;3.47;;
70122;SDS011;57489;37.404;24.920;2023-08-06T03:52:15;13.97;;;3.60;;
70122;SDS011;57489;37.404;24.920;2023-08-06T03:57:15;13.23;;;4.70;;
70122;SDS011;57489;37.404;24.920;2023-08-06T04:02:15;12.43;;;4.00;;
70122;SDS011;57489;37.404;24.920;2023-08-06T04:07:16;15.77;;;4.00;;
70122;SDS011;57489;37.404;24.920;2023-08-06T04:12:16;13.30;;;3.40;;
70122;SDS011;57489;37.404;24.920;2023-08-06T04:17:17;13.40;;;3.77;;
70122;SDS011;57489;37.404;24.920;2023-08-06T04:22:18;10.43;;;3.55;;
70122;SDS011;57489;37.404;24.920;2023-08-06T04:27:19;15.17;;;4.63;;
70122;SDS011;57489;37.404;24.920;2023-08-06T04:32:20;14.70;;;4.30;;
70122;SDS011;57489;37.404;24.920;2023-08-06T04:37:20;15.57;;;4.10;;
70122;SDS011;57489;37.404;24.920;2023-08-06T04:42:21;13.43;;;3.90;;
70122;SDS011;57489;37.404;24.920;2023-08-06T04:47:21;14.87;;;4.20;;
70122;SDS011;57489;37.404;24.920;2023-08-06T04:52:22;15.23;;;3.93;;
70122;SDS011;57489;37.404;24.920;2023-08-06T04:57:22;12.50;;;3.23;;
70122;SDS011;57489;37.404;24.920;2023-08-06T05:02:23;10.20;;;3.13;;
70122;SDS011;57489;37.404;24.920;2023-08-06T05:07:23;11.20;;;3.80;;
70122;SDS011;57489;37.404;24.920;2023-08-06T05:12:23;10.93;;;3.83;;
70122;SDS011;57489;37.404;24.920;2023-08-06T05:17:24;10.73;;;2.93;;
70122;SDS011;57489;37.404;24.920;2023-08-06T05:22:24;14.10;;;3.50;;
70122;SDS011;57489;37.404;24.920;2023-08-06T05:27:25;7.70;;;2.83;;
70122;SDS011;57489;37.404;24.920;2023-08-06T05:32:25;8.43;;;3.77;;
70122;SDS011;57489;37.404;24.920;2023-08-06T05:37:26;8.60;;;3.20;;
70122;SDS011;57489;37.404;24.920;2023-08-06T05:42:26;8.87;;;3.37;;
70122;SDS011;57489;37.404;24.920;2023-08-06T05:47:27;8.13;;;3.07;;
70122;SDS011;57489;37.404;24.920;2023-08-06T05:52:27;12.20;;;3.57;;
70122;SDS011;57489;37.404;24.920;2023-08-06T05:57:27;9.07;;;3.13;;
70122;SDS011;57489;37.404;24.920;2023-08-06T06:02:28;9.90;;;3.50;;
70122;SDS011;57489;37.404;24.920;2023-08-06T06:07:28;12.90;;;3.07;;
70122;SDS011;57489;37.404;24.920;2023-08-06T06:12:29;9.67;;;3.50;;
70122;SDS011;57489;37.404;24.920;2023-08-06T06:17:29;9.67;;;3.27;;
70122;SDS011;57489;37.404;24.920;2023-08-06T06:22:30;9.10;;;2.83;;
70122;SDS011;57489;37.404;24.920;2023-08-06T06:27:30;9.60;;;2.60;;
70122;SDS011;57489;37.404;24.920;2023-08-06T06:32:31;7.53;;;2.80;;
70122;SDS011;57489;37.404;24.920;2023-08-06T06:37:31;6.17;;;2.23;;
70122;SDS011;57489;37.404;24.920;2023-08-06T06:42:32;9.83;;;3.17;;
70122;SDS011;57489;37.404;24.920;2023-08-06T06:47:32;9.47;;;3.23;;
70122;SDS011;57489;37.404;24.920;2023-08-06T06:52:32;11.67;;;2.60;;
70122;SDS011;57489;37.404;24.920;2023-08-06T06:57:33;6.07;;;2.23;;
70122;SDS011;57489;37.404;24.920;2023-08-06T07:02:34;11.30;;;2.60;;
70122;SDS011;57489;37.404;24.920;2023-08-06T07:07:35;14.77;;;3.45;;
70122;SDS011;57489;37.404;24.920;2023-08-06T07:12:35;13.73;;;3.63;;
70122;SDS011;57489;37.404;24.920;2023-08-06T07:17:36;8.43;;;2.70;;
70122;SDS011;57489;37.404;24.920;2023-08-06T07:22:36;11.47;;;3.63;;
70122;SDS011;57489;37.404;24.920;2023-08-06T07:27:37;6.60;;;3.17;;
70122;SDS011;57489;37.404;24.920;2023-08-06T07:32:37;12.87;;;3.70;;
70122;SDS011;57489;37.404;24.920;2023-08-06T07:37:38;12.93;;;3.90;;
70122;SDS011;57489;37.404;24.920;2023-08-06T07:42:39;8.90;;;3.28;;
70122;SDS011;57489;37.404;24.920;2023-08-06T07:47:39;9.20;;;2.60;;
70122;SDS011;57489;37.404;24.920;2023-08-06T07:52:40;5.13;;;2.37;;
70122;SDS011;57489;37.404;24.920;2023-08-06T07:57:40;7.43;;;2.63;;
70122;SDS011;57489;37.404;24.920;2023-08-06T08:02:41;4.90;;;2.03;;
70122;SDS011;57489;37.404;24.920;2023-08-06T08:07:41;7.47;;;2.40;;
70122;SDS011;57489;37.404;24.920;2023-08-06T08:12:41;7.40;;;2.17;;
70122;SDS011;57489;37.404;24.920;2023-08-06T08:17:42;8.97;;;2.90;;
70122;SDS011;57489;37.404;24.920;2023-08-06T08:22:42;7.13;;;2.30;;
70122;SDS011;57489;37.404;24.920;2023-08-06T08:27:43;7.50;;;2.40;;
70122;SDS011;57489;37.404;24.920;2023-08-06T08:32:44;6.90;;;2.60;;
70122;SDS011;57489;37.404;24.920;2023-08-06T08:37:45;5.97;;;2.60;;
70122;SDS011;57489;37.404;24.920;2023-08-06T08:42:45;9.35;;;2.90;;
70122;SDS011;57489;37.404;24.920;2023-08-06T08:47:46;6.83;;;2.20;;
70122;SDS011;57489;37.404;24.920;2023-08-06T08:52:47;9.35;;;2.40;;
70122;SDS011;57489;37.404;24.920;2023-08-06T08:57:50;6.10;;;1.97;;
70122;SDS011;57489;37.404;24.920;2023-08-06T09:02:50;5.00;;;2.17;;
70122;SDS011;57489;37.404;24.920;2023-08-06T09:07:52;7.53;;;2.30;;
70122;SDS011;57489;37.404;24.920;2023-08-06T09:12:55;6.63;;;2.10;;
70122;SDS011;57489;37.404;24.920;2023-08-06T09:17:57;7.87;;;2.47;;
70122;SDS011;57489;37.404;24.920;2023-08-06T09:22:57;5.60;;;2.40;;
70122;SDS011;57489;37.404;24.920;2023-08-06T09:28:06;7.03;;;2.85;;
70122;SDS011;57489;37.404;24.920;2023-08-06T09:33:10;7.30;;;2.20;;
70122;SDS011;57489;37.404;24.920;2023-08-06T09:38:10;5.07;;;2.47;;
70122;SDS011;57489;37.404;24.920;2023-08-06T09:43:11;6.10;;;2.43;;
70122;SDS011;57489;37.404;24.920;2023-08-06T09:48:12;5.50;;;2.23;;
70122;SDS011;57489;37.404;24.920;2023-08-06T09:53:12;7.80;;;2.37;;
70122;SDS011;57489;37.404;24.920;2023-08-06T09:58:13;6.78;;;2.20;;
70122;SDS011;57489;37.404;24.920;2023-08-06T10:03:14;9.98;;;1.83;;
70122;SDS011;57489;37.404;24.920;2023-08-06T10:08:15;7.63;;;1.93;;
70122;SDS011;57489;37.404;24.920;2023-08-06T10:13:15;4.83;;;2.07;;
70122;SDS011;57489;37.404;24.920;2023-08-06T10:18:18;8.15;;;2.65;;
70122;SDS011;57489;37.404;24.920;2023-08-06T10:23:20;7.03;;;2.20;;
70122;SDS011;57489;37.404;24.920;2023-08-06T10:28:36;7.33;;;2.07;;
70122;SDS011;57489;37.404;24.920;2023-08-06T10:33:44;5.68;;;1.83;;
70122;SDS011;57489;37.404;24.920;2023-08-06T10:43:49;8.17;;;1.70;;
70122;SDS011;57489;37.404;24.920;2023-08-06T10:48:50;5.32;;;1.85;;
70122;SDS011;57489;37.404;24.920;2023-08-06T10:53:51;6.10;;;1.80;;
70122;SDS011;57489;37.404;24.920;2023-08-06T10:58:53;7.28;;;1.98;;
70122;SDS011;57489;37.404;24.920;2023-08-06T11:03:54;8.80;;;1.70;;
70122;SDS011;57489;37.404;24.920;2023-08-06T11:08:55;7.90;;;2.80;;
70122;SDS011;57489;37.404;24.920;2023-08-06T11:13:55;6.38;;;1.80;;
70122;SDS011;57489;37.404;24.920;2023-08-06T11:18:56;4.60;;;2.00;;
70122;SDS011;57489;37.404;24.920;2023-08-06T11:23:57;8.10;;;1.90;;
70122;SDS011;57489;37.404;24.920;2023-08-06T11:28:57;6.70;;;2.03;;
70122;SDS011;57489;37.404;24.920;2023-08-06T11:33:58;5.07;;;2.20;;
70122;SDS011;57489;37.404;24.920;2023-08-06T11:38:59;5.33;;;1.60;;
70122;SDS011;57489;37.404;24.920;2023-08-06T11:44:03;7.73;;;2.20;;
70122;SDS011;57489;37.404;24.920;2023-08-06T11:49:03;5.80;;;2.22;;
70122;SDS011;57489;37.404;24.920;2023-08-06T11:54:04;4.53;;;1.70;;
70122;SDS011;57489;37.404;24.920;2023-08-06T11:59:04;4.03;;;1.70;;
70122;SDS011;57489;37.404;24.920;2023-08-06T12:04:05;8.37;;;2.23;;
70122;SDS011;57489;37.404;24.920;2023-08-06T12:09:05;7.00;;;1.93;;
70122;SDS011;57489;37.404;24.920;2023-08-06T12:14:06;7.60;;;2.17;;
70122;SDS011;57489;37.404;24.920;2023-08-06T12:19:06;4.63;;;1.33;;
70122;SDS011;57489;37.404;24.920;2023-08-06T12:24:07;7.57;;;2.00;;
70122;SDS011;57489;37.404;24.920;2023-08-06T12:29:07;5.47;;;1.90;;
70122;SDS011;57489;37.404;24.920;2023-08-06T12:34:07;6.67;;;1.63;;
70122;SDS011;57489;37.404;24.920;2023-08-06T12:39:08;4.80;;;1.80;;
70122;SDS011;57489;37.404;24.920;2023-08-06T12:44:08;7.67;;;1.90;;
70122;SDS011;57489;37.404;24.920;2023-08-06T12:49:09;4.30;;;1.53;;
70122;SDS011;57489;37.404;24.920;2023-08-06T12:54:09;4.77;;;1.80;;
70122;SDS011;57489;37.404;24.920;2023-08-06T12:59:10;4.90;;;1.57;;
70122;SDS011;57489;37.404;24.920;2023-08-06T13:04:10;8.10;;;2.17;;
70122;SDS011;57489;37.404;24.920;2023-08-06T13:09:11;6.70;;;1.90;;
70122;SDS011;57489;37.404;24.920;2023-08-06T13:14:13;5.90;;;1.73;;
70122;SDS011;57489;37.404;24.920;2023-08-06T13:19:14;4.23;;;1.70;;
70122;SDS011;57489;37.404;24.920;2023-08-06T13:24:14;6.85;;;2.10;;
70122;SDS011;57489;37.404;24.920;2023-08-06T13:29:15;4.93;;;1.70;;
70122;SDS011;57489;37.404;24.920;2023-08-06T13:34:15;7.40;;;1.80;;
70122;SDS011;57489;37.404;24.920;2023-08-06T13:39:15;5.17;;;2.00;;
70122;SDS011;57489;37.404;24.920;2023-08-06T13:44:16;6.17;;;2.27;;
70122;SDS011;57489;37.404;24.920;2023-08-06T13:49:16;7.33;;;2.33;;
70122;SDS011;57489;37.404;24.920;2023-08-06T13:54:17;8.50;;;1.97;;
70122;SDS011;57489;37.404;24.920;2023-08-06T13:59:17;9.23;;;2.37;;
70122;SDS011;57489;37.404;24.920;2023-08-06T14:04:18;9.97;;;2.20;;
70122;SDS011;57489;37.404;24.920;2023-08-06T14:09:18;10.87;;;2.27;;
70122;SDS011;57489;37.404;24.920;2023-08-06T14:14:19;5.33;;;2.00;;
70122;SDS011;57489;37.404;24.920;2023-08-06T14:19:19;9.00;;;1.73;;
70122;SDS011;57489;37.404;24.920;2023-08-06T14:24:20;8.50;;;2.53;;
70122;SDS011;57489;37.404;24.920;2023-08-06T14:29:21;5.57;;;1.73;;
70122;SDS011;57489;37.404;24.920;2023-08-06T14:34:21;8.17;;;2.53;;
70122;SDS011;57489;37.404;24.920;2023-08-06T14:39:22;6.23;;;1.73;;
70122;SDS011;57489;37.404;24.920;2023-08-06T14:44:22;7.10;;;1.80;;
70122;SDS011;57489;37.404;24.920;2023-08-06T14:49:23;8.33;;;1.97;;
70122;SDS011;57489;37.404;24.920;2023-08-06T14:54:23;14.80;;;4.10;;
70122;SDS011;57489;37.404;24.920;2023-08-06T14:59:24;9.47;;;2.43;;
70122;SDS011;57489;37.404;24.920;2023-08-06T15:04:24;11.83;;;2.37;;
70122;SDS011;57489;37.404;24.920;2023-08-06T15:09:25;7.87;;;1.73;;
70122;SDS011;57489;37.404;24.920;2023-08-06T15:14:25;11.07;;;2.20;;
70122;SDS011;57489;37.404;24.920;2023-08-06T15:19:25;6.03;;;2.17;;
70122;SDS011;57489;37.404;24.920;2023-08-06T15:24:26;12.80;;;1.93;;
70122;SDS011;57489;37.404;24.920;2023-08-06T15:29:26;9.20;;;1.87;;
70122;SDS011;57489;37.404;24.920;2023-08-06T15:34:27;7.43;;;2.00;;
70122;SDS011;57489;37.404;24.920;2023-08-06T15:39:27;5.00;;;1.73;;
70122;SDS011;57489;37.404;24.920;2023-08-06T15:44:28;6.20;;;1.47;;
70122;SDS011;57489;37.404;24.920;2023-08-06T15:49:28;5.70;;;1.60;;
70122;SDS011;57489;37.404;24.920;2023-08-06T15:54:28;7.13;;;1.67;;
70122;SDS011;57489;37.404;24.920;2023-08-06T15:59:30;8.23;;;2.73;;
70122;SDS011;57489;37.404;24.920;2023-08-06T16:04:31;6.63;;;2.00;;
70122;SDS011;57489;37.404;24.920;2023-08-06T16:09:32;6.40;;;1.70;;
70122;SDS011;57489;37.404;24.920;2023-08-06T16:14:32;6.50;;;2.10;;
70122;SDS011;57489;37.404;24.920;2023-08-06T16:19:32;5.40;;;1.83;;
70122;SDS011;57489;37.404;24.920;2023-08-06T16:24:34;5.85;;;1.70;;
70122;SDS011;57489;37.404;24.920;2023-08-06T16:29:36;5.90;;;1.57;;
70122;SDS011;57489;37.404;24.920;2023-08-06T16:34:37;7.95;;;1.65;;
70122;SDS011;57489;37.404;24.920;2023-08-06T16:39:38;6.05;;;1.40;;
70122;SDS011;57489;37.404;24.920;2023-08-06T16:44:38;5.53;;;1.40;;
70122;SDS011;57489;37.404;24.920;2023-08-06T16:49:39;7.47;;;1.60;;
70122;SDS011;57489;37.404;24.920;2023-08-06T16:54:39;8.00;;;1.60;;
70122;SDS011;57489;37.404;24.920;2023-08-06T16:59:39;4.93;;;1.53;;
70122;SDS011;57489;37.404;24.920;2023-08-06T17:04:40;10.83;;;1.97;;
70122;SDS011;57489;37.404;24.920;2023-08-06T17:09:40;8.80;;;1.77;;
70122;SDS011;57489;37.404;24.920;2023-08-06T17:14:41;6.80;;;2.00;;
70122;SDS011;57489;37.404;24.920;2023-08-06T17:19:42;4.93;;;1.77;;
70122;SDS011;57489;37.404;24.920;2023-08-06T17:24:43;11.43;;;2.00;;
70122;SDS011;57489;37.404;24.920;2023-08-06T17:29:43;7.65;;;1.48;;
70122;SDS011;57489;37.404;24.920;2023-08-06T17:34:44;9.43;;;2.20;;
70122;SDS011;57489;37.404;24.920;2023-08-06T17:39:44;7.27;;;1.80;;
70122;SDS011;57489;37.404;24.920;2023-08-06T17:44:44;7.73;;;1.93;;
70122;SDS011;57489;37.404;24.920;2023-08-06T17:49:45;12.93;;;2.10;;
70122;SDS011;57489;37.404;24.920;2023-08-06T17:54:45;14.37;;;2.93;;
70122;SDS011;57489;37.404;24.920;2023-08-06T17:59:46;7.23;;;2.00;;
70122;SDS011;57489;37.404;24.920;2023-08-06T18:04:46;9.20;;;2.10;;
70122;SDS011;57489;37.404;24.920;2023-08-06T18:09:48;7.90;;;1.70;;
70122;SDS011;57489;37.404;24.920;2023-08-06T18:14:49;7.47;;;1.53;;
70122;SDS011;57489;37.404;24.920;2023-08-06T18:19:49;10.40;;;2.07;;
70122;SDS011;57489;37.404;24.920;2023-08-06T18:24:50;5.93;;;1.40;;
70122;SDS011;57489;37.404;24.920;2023-08-06T18:29:50;10.17;;;1.53;;
70122;SDS011;57489;37.404;24.920;2023-08-06T18:34:50;7.63;;;1.60;;
70122;SDS011;57489;37.404;24.920;2023-08-06T18:39:51;8.27;;;2.03;;
70122;SDS011;57489;37.404;24.920;2023-08-06T18:44:52;10.77;;;2.27;;
70122;SDS011;57489;37.404;24.920;2023-08-06T18:49:52;10.80;;;2.07;;
70122;SDS011;57489;37.404;24.920;2023-08-06T18:54:53;10.77;;;2.00;;
70122;SDS011;57489;37.404;24.920;2023-08-06T18:59:53;10.93;;;2.10;;
70122;SDS011;57489;37.404;24.920;2023-08-06T19:04:54;9.93;;;1.93;;
70122;SDS011;57489;37.404;24.920;2023-08-06T19:09:54;9.45;;;1.60;;
70122;SDS011;57489;37.404;24.920;2023-08-06T19:14:55;9.37;;;2.13;;
70122;SDS011;57489;37.404;24.920;2023-08-06T19:19:55;8.93;;;1.90;;
70122;SDS011;57489;37.404;24.920;2023-08-06T19:24:56;9.13;;;1.93;;
70122;SDS011;57489;37.404;24.920;2023-08-06T19:29:56;12.80;;;1.90;;
70122;SDS011;57489;37.404;24.920;2023-08-06T19:34:57;10.13;;;1.60;;
70122;SDS011;57489;37.404;24.920;2023-08-06T19:39:57;11.23;;;2.10;;
70122;SDS011;57489;37.404;24.920;2023-08-06T19:44:58;15.53;;;3.00;;
70122;SDS011;57489;37.404;24.920;2023-08-06T19:49:58;13.93;;;3.10;;
70122;SDS011;57489;37.404;24.920;2023-08-06T19:54:59;7.00;;;2.63;;
70122;SDS011;57489;37.404;24.920;2023-08-06T20:00:00;11.77;;;2.10;;
70122;SDS011;57489;37.404;24.920;2023-08-06T20:05:01;12.95;;;2.00;;
70122;SDS011;57489;37.404;24.920;2023-08-06T20:10:01;10.07;;;2.10;;
70122;SDS011;57489;37.404;24.920;2023-08-06T20:15:02;8.17;;;2.10;;
70122;SDS011;57489;37.404;24.920;2023-08-06T20:20:02;6.40;;;1.92;;
70122;SDS011;57489;37.404;24.920;2023-08-06T20:25:03;10.63;;;2.00;;
70122;SDS011;57489;37.404;24.920;2023-08-06T20:30:04;7.70;;;2.03;;
70122;SDS011;57489;37.404;24.920;2023-08-06T20:35:05;8.60;;;1.33;;
70122;SDS011;57489;37.404;24.920;2023-08-06T20:40:06;10.07;;;2.20;;
70122;SDS011;57489;37.404;24.920;2023-08-06T20:45:08;7.13;;;1.27;;
70122;SDS011;57489;37.404;24.920;2023-08-06T20:50:09;8.25;;;1.83;;
70122;SDS011;57489;37.404;24.920;2023-08-06T20:55:09;7.77;;;1.60;;
70122;SDS011;57489;37.404;24.920;2023-08-06T21:00:11;10.50;;;2.27;;
70122;SDS011;57489;37.404;24.920;2023-08-06T21:05:12;9.13;;;2.28;;
70122;SDS011;57489;37.404;24.920;2023-08-06T21:10:13;11.90;;;2.33;;
70122;SDS011;57489;37.404;24.920;2023-08-06T21:15:13;6.90;;;1.77;;
70122;SDS011;57489;37.404;24.920;2023-08-06T21:20:14;7.63;;;1.80;;
70122;SDS011;57489;37.404;24.920;2023-08-06T21:25:14;10.87;;;1.90;;
70122;SDS011;57489;37.404;24.920;2023-08-06T21:30:15;6.70;;;1.40;;
70122;SDS011;57489;37.404;24.920;2023-08-06T21:35:16;9.47;;;2.00;;
70122;SDS011;57489;37.404;24.920;2023-08-06T21:40:16;7.13;;;2.00;;
70122;SDS011;57489;37.404;24.920;2023-08-06T21:45:17;7.30;;;1.60;;
70122;SDS011;57489;37.404;24.920;2023-08-06T21:50:17;8.00;;;1.57;;
70122;SDS011;57489;37.404;24.920;2023-08-06T21:55:18;5.27;;;1.77;;
70122;SDS011;57489;37.404;24.920;2023-08-06T22:00:18;8.07;;;1.75;;
70122;SDS011;57489;37.404;24.920;2023-08-06T22:05:19;7.33;;;1.70;;
70122;SDS011;57489;37.404;24.920;2023-08-06T22:10:19;7.53;;;1.80;;
70122;SDS011;57489;37.404;24.920;2023-08-06T22:15:19;7.20;;;1.73;;
70122;SDS011;57489;37.404;24.920;2023-08-06T22:20:20;5.13;;;1.40;;
70122;SDS011;57489;37.404;24.920;2023-08-06T22:25:20;6.77;;;1.60;;
70122;SDS011;57489;37.404;24.920;2023-08-06T22:30:21;6.37;;;1.67;;
70122;SDS011;57489;37.404;24.920;2023-08-06T22:35:21;7.23;;;1.90;;
70122;SDS011;57489;37.404;24.920;2023-08-06T22:40:25;7.23;;;1.70;;
70122;SDS011;57489;37.404;24.920;2023-08-06T22:45:25;6.53;;;1.83;;
70122;SDS011;57489;37.404;24.920;2023-08-06T22:50:27;4.95;;;1.40;;
70122;SDS011;57489;37.404;24.920;2023-08-06T22:55:27;7.83;;;1.93;;
70122;SDS011;57489;37.404;24.920;2023-08-06T23:00:28;6.43;;;1.93;;
70122;SDS011;57489;37.404;24.920;2023-08-06T23:05:28;5.28;;;1.50;;
70122;SDS011;57489;37.404;24.920;2023-08-06T23:10:29;8.07;;;1.80;;
70122;SDS011;57489;37.404;24.920;2023-08-06T23:15:29;5.13;;;1.07;;
70122;SDS011;57489;37.404;24.920;2023-08-06T23:20:30;4.30;;;1.37;;
70122;SDS011;57489;37.404;24.920;2023-08-06T23:25:33;3.00;;;1.43;;
70122;SDS011;57489;37.404;24.920;2023-08-06T23:30:34;6.13;;;1.35;;
70122;SDS011;57489;37.404;24.920;2023-08-06T23:35:35;4.60;;;1.53;;
70122;SDS011;57489;37.404;24.920;2023-08-06T23:40:35;4.80;;;1.40;;
70122;SDS011;57489;37.404;24.920;2023-08-06T23:45:36;3.73;;;1.27;;
70122;SDS011;57489;37.404;24.920;2023-08-06T23:50:36;4.20;;;1.40;;
70122;SDS011;57489;37.404;24.920;2023-08-06T23:55:37;3.13;;;1.20;;
